sensor_id;sensor_type;location;lat;lon;timestamp;temperature;humidity
32947;DHT22;54465;51.230;22.504;2022-09-21T00:01:38;8.90;99.90
32947;DHT22;54465;51.230;22.504;2022-09-21T00:04:42;8.90;99.90
32947;DHT22;54465;51.230;22.504;2022-09-21T00:07:44;8.90;99.90
32947;DHT22;54465;51.230;22.504;2022-09-21T00:10:49;8.90;99.90
32947;DHT22;54465;51.230;22.504;2022-09-21T00:13:52;9.00;99.90
32947;DHT22;54465;51.230;22.504;2022-09-21T00:16:56;9.00;99.90
32947;DHT22;54465;51.230;22.504;2022-09-21T00:19:58;9.10;99.90
32947;DHT22;54465;51.230;22.504;2022-09-21T00:23:03;9.10;99.90
32947;DHT22;54465;51.230;22.504;2022-09-21T00:26:07;9.20;99.90
32947;DHT22;54465;51.230;22.504;2022-09-21T00:29:10;9.20;99.90
32947;DHT22;54465;51.230;22.504;2022-09-21T00:32:15;9.20;99.90
32947;DHT22;54465;51.230;22.504;2022-09-21T00:35:21;9.30;99.90
32947;DHT22;54465;51.230;22.504;2022-09-21T00:38:23;9.40;99.90
32947;DHT22;54465;51.230;22.504;2022-09-21T00:41:28;9.40;99.90
32947;DHT22;54465;51.230;22.504;2022-09-21T00:44:32;9.40;99.90
32947;DHT22;54465;51.230;22.504;2022-09-21T00:47:39;9.40;99.90
32947;DHT22;54465;51.230;22.504;2022-09-21T00:50:47;9.50;99.90
32947;DHT22;54465;51.230;22.504;2022-09-21T00:53:53;9.50;99.90
32947;DHT22;54465;51.230;22.504;2022-09-21T00:56:58;9.50;99.90
32947;DHT22;54465;51.230;22.504;2022-09-21T01:00:07;9.50;99.90
32947;DHT22;54465;51.230;22.504;2022-09-21T01:03:12;9.50;99.90
32947;DHT22;54465;51.230;22.504;2022-09-21T01:06:19;9.40;99.90
32947;DHT22;54465;51.230;22.504;2022-09-21T01:09:23;9.40;99.90
32947;DHT22;54465;51.230;22.504;2022-09-21T01:12:38;9.40;99.90
32947;DHT22;54465;51.230;22.504;2022-09-21T01:15:51;9.40;99.90
32947;DHT22;54465;51.230;22.504;2022-09-21T01:19:01;9.40;99.90
32947;DHT22;54465;51.230;22.504;2022-09-21T01:22:12;9.40;99.90
32947;DHT22;54465;51.230;22.504;2022-09-21T01:25:27;9.30;99.90
32947;DHT22;54465;51.230;22.504;2022-09-21T01:32:07;9.20;99.90
32947;DHT22;54465;51.230;22.504;2022-09-21T01:35:15;9.20;99.90
32947;DHT22;54465;51.230;22.504;2022-09-21T01:38:22;9.20;99.90
32947;DHT22;54465;51.230;22.504;2022-09-21T01:41:28;9.10;99.90
32947;DHT22;54465;51.230;22.504;2022-09-21T01:44:34;9.10;99.90
32947;DHT22;54465;51.230;22.504;2022-09-21T01:47:46;9.10;99.90
32947;DHT22;54465;51.230;22.504;2022-09-21T01:50:57;9.10;99.90
32947;DHT22;54465;51.230;22.504;2022-09-21T01:54:04;9.10;99.90
32947;DHT22;54465;51.230;22.504;2022-09-21T01:57:13;9.10;99.90
32947;DHT22;54465;51.230;22.504;2022-09-21T02:00:16;9.00;99.90
32947;DHT22;54465;51.230;22.504;2022-09-21T02:03:23;9.00;99.90
32947;DHT22;54465;51.230;22.504;2022-09-21T02:06:29;9.00;99.90
32947;DHT22;54465;51.230;22.504;2022-09-21T02:09:32;9.00;99.90
32947;DHT22;54465;51.230;22.504;2022-09-21T02:12:36;9.00;99.90
32947;DHT22;54465;51.230;22.504;2022-09-21T02:15:49;9.00;99.90
32947;DHT22;54465;51.230;22.504;2022-09-21T02:19:07;9.00;99.90
32947;DHT22;54465;51.230;22.504;2022-09-21T02:22:16;9.00;99.90
32947;DHT22;54465;51.230;22.504;2022-09-21T02:25:32;9.00;99.90
32947;DHT22;54465;51.230;22.504;2022-09-21T02:28:40;9.00;99.90
32947;DHT22;54465;51.230;22.504;2022-09-21T02:31:50;9.00;99.90
32947;DHT22;54465;51.230;22.504;2022-09-21T02:34:59;9.00;99.90
32947;DHT22;54465;51.230;22.504;2022-09-21T02:38:10;9.00;99.90
32947;DHT22;54465;51.230;22.504;2022-09-21T02:41:22;9.00;99.90
32947;DHT22;54465;51.230;22.504;2022-09-21T02:44:30;9.00;99.90
32947;DHT22;54465;51.230;22.504;2022-09-21T02:47:37;9.00;99.90
32947;DHT22;54465;51.230;22.504;2022-09-21T02:50:45;9.00;99.90
32947;DHT22;54465;51.230;22.504;2022-09-21T02:53:49;9.00;99.90
32947;DHT22;54465;51.230;22.504;2022-09-21T02:56:54;9.00;99.90
32947;DHT22;54465;51.230;22.504;2022-09-21T02:59:56;9.00;99.90
32947;DHT22;54465;51.230;22.504;2022-09-21T03:02:59;9.00;99.90
32947;DHT22;54465;51.230;22.504;2022-09-21T03:06:04;9.00;99.90
32947;DHT22;54465;51.230;22.504;2022-09-21T03:09:06;9.00;99.90
32947;DHT22;54465;51.230;22.504;2022-09-21T03:12:09;9.00;99.90
32947;DHT22;54465;51.230;22.504;2022-09-21T03:15:11;9.00;99.90
32947;DHT22;54465;51.230;22.504;2022-09-21T03:18:16;9.00;99.90
32947;DHT22;54465;51.230;22.504;2022-09-21T03:21:20;9.00;99.90
32947;DHT22;54465;51.230;22.504;2022-09-21T03:24:25;9.00;99.90
32947;DHT22;54465;51.230;22.504;2022-09-21T03:27:46;9.00;99.90
32947;DHT22;54465;51.230;22.504;2022-09-21T03:30:50;9.00;99.90
32947;DHT22;54465;51.230;22.504;2022-09-21T03:33:52;9.00;99.90
32947;DHT22;54465;51.230;22.504;2022-09-21T03:36:56;9.00;99.90
32947;DHT22;54465;51.230;22.504;2022-09-21T03:40:00;9.00;99.90
32947;DHT22;54465;51.230;22.504;2022-09-21T03:43:03;9.00;99.90
32947;DHT22;54465;51.230;22.504;2022-09-21T03:46:07;9.00;99.90
32947;DHT22;54465;51.230;22.504;2022-09-21T03:49:10;8.90;99.90
32947;DHT22;54465;51.230;22.504;2022-09-21T03:52:15;8.90;99.90
32947;DHT22;54465;51.230;22.504;2022-09-21T03:55:17;9.00;99.90
32947;DHT22;54465;51.230;22.504;2022-09-21T03:58:21;9.00;99.90
32947;DHT22;54465;51.230;22.504;2022-09-21T04:01:24;9.00;99.90
32947;DHT22;54465;51.230;22.504;2022-09-21T04:04:27;9.00;99.90
32947;DHT22;54465;51.230;22.504;2022-09-21T04:07:32;9.00;99.90
32947;DHT22;54465;51.230;22.504;2022-09-21T04:10:35;9.00;99.90
32947;DHT22;54465;51.230;22.504;2022-09-21T04:13:38;9.00;99.90
32947;DHT22;54465;51.230;22.504;2022-09-21T04:16:41;9.00;99.90
32947;DHT22;54465;51.230;22.504;2022-09-21T04:19:43;9.10;99.90
32947;DHT22;54465;51.230;22.504;2022-09-21T04:22:47;9.00;99.90
32947;DHT22;54465;51.230;22.504;2022-09-21T04:25:49;9.10;99.90
32947;DHT22;54465;51.230;22.504;2022-09-21T04:28:52;9.10;99.90
32947;DHT22;54465;51.230;22.504;2022-09-21T04:31:57;9.10;99.90
32947;DHT22;54465;51.230;22.504;2022-09-21T04:34:59;9.10;99.90
32947;DHT22;54465;51.230;22.504;2022-09-21T04:38:04;9.10;99.90
32947;DHT22;54465;51.230;22.504;2022-09-21T04:41:07;9.10;99.90
32947;DHT22;54465;51.230;22.504;2022-09-21T04:44:09;9.10;99.90
32947;DHT22;54465;51.230;22.504;2022-09-21T04:47:12;9.20;99.90
32947;DHT22;54465;51.230;22.504;2022-09-21T04:50:18;9.20;99.90
32947;DHT22;54465;51.230;22.504;2022-09-21T04:53:22;9.20;99.90
32947;DHT22;54465;51.230;22.504;2022-09-21T04:56:25;9.20;99.90
32947;DHT22;54465;51.230;22.504;2022-09-21T04:59:27;9.20;99.90
32947;DHT22;54465;51.230;22.504;2022-09-21T05:02:30;9.20;99.90
32947;DHT22;54465;51.230;22.504;2022-09-21T05:05:32;9.20;99.90
32947;DHT22;54465;51.230;22.504;2022-09-21T05:08:36;9.20;99.90
32947;DHT22;54465;51.230;22.504;2022-09-21T05:11:58;9.20;99.90
32947;DHT22;54465;51.230;22.504;2022-09-21T05:15:01;9.20;99.90
32947;DHT22;54465;51.230;22.504;2022-09-21T05:18:04;9.20;99.90
32947;DHT22;54465;51.230;22.504;2022-09-21T05:21:12;9.20;99.90
32947;DHT22;54465;51.230;22.504;2022-09-21T05:24:17;9.20;99.90
32947;DHT22;54465;51.230;22.504;2022-09-21T05:27:20;9.20;99.90
32947;DHT22;54465;51.230;22.504;2022-09-21T05:30:23;9.20;99.90
32947;DHT22;54465;51.230;22.504;2022-09-21T05:33:27;9.20;99.90
32947;DHT22;54465;51.230;22.504;2022-09-21T05:36:39;9.30;99.90
32947;DHT22;54465;51.230;22.504;2022-09-21T05:39:46;9.30;99.90
32947;DHT22;54465;51.230;22.504;2022-09-21T05:42:49;9.30;99.90
32947;DHT22;54465;51.230;22.504;2022-09-21T05:45:55;9.30;99.90
32947;DHT22;54465;51.230;22.504;2022-09-21T05:49:08;9.30;99.90
32947;DHT22;54465;51.230;22.504;2022-09-21T05:52:20;9.40;99.90
32947;DHT22;54465;51.230;22.504;2022-09-21T05:55:35;9.40;99.90
32947;DHT22;54465;51.230;22.504;2022-09-21T05:58:46;9.40;99.90
32947;DHT22;54465;51.230;22.504;2022-09-21T06:02:01;9.40;99.90
32947;DHT22;54465;51.230;22.504;2022-09-21T06:05:36;9.50;99.90
32947;DHT22;54465;51.230;22.504;2022-09-21T06:08:43;9.50;99.90
32947;DHT22;54465;51.230;22.504;2022-09-21T06:11:49;9.40;99.90
32947;DHT22;54465;51.230;22.504;2022-09-21T06:14:52;9.40;99.90
32947;DHT22;54465;51.230;22.504;2022-09-21T06:17:57;9.50;99.90
32947;DHT22;54465;51.230;22.504;2022-09-21T06:21:00;9.50;99.90
32947;DHT22;54465;51.230;22.504;2022-09-21T06:24:06;9.50;99.90
32947;DHT22;54465;51.230;22.504;2022-09-21T06:27:10;9.50;99.90
32947;DHT22;54465;51.230;22.504;2022-09-21T06:30:14;9.50;99.90
32947;DHT22;54465;51.230;22.504;2022-09-21T06:33:17;9.50;99.90
32947;DHT22;54465;51.230;22.504;2022-09-21T06:36:28;9.60;99.90
32947;DHT22;54465;51.230;22.504;2022-09-21T06:39:30;9.60;99.90
32947;DHT22;54465;51.230;22.504;2022-09-21T06:42:34;9.60;99.90
32947;DHT22;54465;51.230;22.504;2022-09-21T06:46:00;9.60;99.90
32947;DHT22;54465;51.230;22.504;2022-09-21T06:49:10;9.60;99.90
32947;DHT22;54465;51.230;22.504;2022-09-21T06:52:16;9.60;99.90
32947;DHT22;54465;51.230;22.504;2022-09-21T06:55:20;9.70;99.90
32947;DHT22;54465;51.230;22.504;2022-09-21T06:58:27;9.70;99.90
32947;DHT22;54465;51.230;22.504;2022-09-21T07:01:33;9.80;99.90
32947;DHT22;54465;51.230;22.504;2022-09-21T07:04:35;9.80;99.90
32947;DHT22;54465;51.230;22.504;2022-09-21T07:07:44;9.80;99.90
32947;DHT22;54465;51.230;22.504;2022-09-21T07:10:47;9.90;99.90
32947;DHT22;54465;51.230;22.504;2022-09-21T07:13:52;9.80;99.90
32947;DHT22;54465;51.230;22.504;2022-09-21T07:16:54;9.80;99.90
32947;DHT22;54465;51.230;22.504;2022-09-21T07:19:57;9.80;99.90
32947;DHT22;54465;51.230;22.504;2022-09-21T07:23:00;9.90;99.90
32947;DHT22;54465;51.230;22.504;2022-09-21T07:26:16;9.90;99.90
32947;DHT22;54465;51.230;22.504;2022-09-21T07:29:21;9.90;99.90
32947;DHT22;54465;51.230;22.504;2022-09-21T07:32:24;9.90;99.90
32947;DHT22;54465;51.230;22.504;2022-09-21T07:35:28;9.90;99.90
32947;DHT22;54465;51.230;22.504;2022-09-21T07:38:34;9.90;99.90
32947;DHT22;54465;51.230;22.504;2022-09-21T07:41:39;9.90;99.90
32947;DHT22;54465;51.230;22.504;2022-09-21T07:44:43;10.00;99.90
32947;DHT22;54465;51.230;22.504;2022-09-21T07:47:47;10.00;99.90
32947;DHT22;54465;51.230;22.504;2022-09-21T07:50:49;10.10;99.90
32947;DHT22;54465;51.230;22.504;2022-09-21T07:53:55;10.10;99.90
32947;DHT22;54465;51.230;22.504;2022-09-21T07:57:03;10.10;99.90
32947;DHT22;54465;51.230;22.504;2022-09-21T08:00:24;10.10;99.90
32947;DHT22;54465;51.230;22.504;2022-09-21T08:03:29;10.20;99.90
32947;DHT22;54465;51.230;22.504;2022-09-21T08:06:33;10.20;99.90
32947;DHT22;54465;51.230;22.504;2022-09-21T08:09:35;10.20;99.90
32947;DHT22;54465;51.230;22.504;2022-09-21T08:12:39;10.30;99.90
32947;DHT22;54465;51.230;22.504;2022-09-21T08:15:46;10.30;99.90
32947;DHT22;54465;51.230;22.504;2022-09-21T08:18:48;10.50;99.90
32947;DHT22;54465;51.230;22.504;2022-09-21T08:21:54;10.60;99.90
32947;DHT22;54465;51.230;22.504;2022-09-21T08:25:01;10.70;99.90
32947;DHT22;54465;51.230;22.504;2022-09-21T08:28:04;10.90;99.90
32947;DHT22;54465;51.230;22.504;2022-09-21T08:31:09;11.00;99.90
32947;DHT22;54465;51.230;22.504;2022-09-21T08:34:15;11.20;99.90
32947;DHT22;54465;51.230;22.504;2022-09-21T08:37:20;11.40;99.90
32947;DHT22;54465;51.230;22.504;2022-09-21T08:40:31;11.50;99.90
32947;DHT22;54465;51.230;22.504;2022-09-21T08:43:39;11.60;99.90
32947;DHT22;54465;51.230;22.504;2022-09-21T08:46:46;11.60;99.90
32947;DHT22;54465;51.230;22.504;2022-09-21T08:49:57;11.60;99.90
32947;DHT22;54465;51.230;22.504;2022-09-21T08:53:05;11.60;99.90
32947;DHT22;54465;51.230;22.504;2022-09-21T08:56:12;11.70;99.90
32947;DHT22;54465;51.230;22.504;2022-09-21T08:59:16;11.70;99.90
32947;DHT22;54465;51.230;22.504;2022-09-21T09:02:39;11.80;99.90
32947;DHT22;54465;51.230;22.504;2022-09-21T09:05:54;11.80;99.90
32947;DHT22;54465;51.230;22.504;2022-09-21T09:09:11;11.80;99.90
32947;DHT22;54465;51.230;22.504;2022-09-21T09:12:35;11.80;99.90
32947;DHT22;54465;51.230;22.504;2022-09-21T09:15:57;11.60;99.90
32947;DHT22;54465;51.230;22.504;2022-09-21T09:19:10;11.60;99.90
32947;DHT22;54465;51.230;22.504;2022-09-21T09:22:24;11.60;99.90
32947;DHT22;54465;51.230;22.504;2022-09-21T09:25:35;11.60;99.90
32947;DHT22;54465;51.230;22.504;2022-09-21T09:28:43;11.70;99.90
32947;DHT22;54465;51.230;22.504;2022-09-21T09:31:51;11.80;99.90
32947;DHT22;54465;51.230;22.504;2022-09-21T09:35:03;12.00;99.90
32947;DHT22;54465;51.230;22.504;2022-09-21T09:38:14;12.20;99.90
32947;DHT22;54465;51.230;22.504;2022-09-21T09:41:45;12.30;99.90
32947;DHT22;54465;51.230;22.504;2022-09-21T09:45:18;12.30;99.90
32947;DHT22;54465;51.230;22.504;2022-09-21T09:48:55;12.30;99.90
32947;DHT22;54465;51.230;22.504;2022-09-21T09:52:13;12.30;99.90
32947;DHT22;54465;51.230;22.504;2022-09-21T09:55:19;12.40;99.90
32947;DHT22;54465;51.230;22.504;2022-09-21T09:58:38;12.40;99.90
32947;DHT22;54465;51.230;22.504;2022-09-21T10:01:44;12.60;99.90
32947;DHT22;54465;51.230;22.504;2022-09-21T10:04:55;12.80;99.90
32947;DHT22;54465;51.230;22.504;2022-09-21T10:08:05;13.00;99.90
32947;DHT22;54465;51.230;22.504;2022-09-21T10:11:09;13.30;99.90
32947;DHT22;54465;51.230;22.504;2022-09-21T10:14:17;13.60;99.90
32947;DHT22;54465;51.230;22.504;2022-09-21T10:17:22;13.80;99.90
32947;DHT22;54465;51.230;22.504;2022-09-21T10:20:25;14.00;99.90
32947;DHT22;54465;51.230;22.504;2022-09-21T10:23:33;14.00;99.90
32947;DHT22;54465;51.230;22.504;2022-09-21T10:26:43;13.60;99.90
32947;DHT22;54465;51.230;22.504;2022-09-21T10:29:49;13.30;99.90
32947;DHT22;54465;51.230;22.504;2022-09-21T10:32:55;13.20;99.90
32947;DHT22;54465;51.230;22.504;2022-09-21T10:35:58;13.00;99.90
32947;DHT22;54465;51.230;22.504;2022-09-21T10:39:19;12.70;99.90
32947;DHT22;54465;51.230;22.504;2022-09-21T10:42:22;12.50;99.90
32947;DHT22;54465;51.230;22.504;2022-09-21T10:45:28;12.40;99.90
32947;DHT22;54465;51.230;22.504;2022-09-21T10:48:40;12.30;99.90
32947;DHT22;54465;51.230;22.504;2022-09-21T10:51:47;12.10;99.90
32947;DHT22;54465;51.230;22.504;2022-09-21T10:54:54;12.00;99.90
32947;DHT22;54465;51.230;22.504;2022-09-21T10:58:01;12.00;99.90
32947;DHT22;54465;51.230;22.504;2022-09-21T11:01:10;12.10;99.90
32947;DHT22;54465;51.230;22.504;2022-09-21T11:04:17;12.30;99.90
32947;DHT22;54465;51.230;22.504;2022-09-21T11:07:26;12.20;99.90
32947;DHT22;54465;51.230;22.504;2022-09-21T11:10:37;12.20;99.90
32947;DHT22;54465;51.230;22.504;2022-09-21T11:13:47;12.20;99.90
32947;DHT22;54465;51.230;22.504;2022-09-21T11:16:55;12.30;99.90
32947;DHT22;54465;51.230;22.504;2022-09-21T11:20:07;12.30;99.90
32947;DHT22;54465;51.230;22.504;2022-09-21T11:23:20;12.30;99.90
32947;DHT22;54465;51.230;22.504;2022-09-21T11:26:29;12.40;99.90
32947;DHT22;54465;51.230;22.504;2022-09-21T11:29:43;12.40;99.90
32947;DHT22;54465;51.230;22.504;2022-09-21T11:33:04;12.40;99.90
32947;DHT22;54465;51.230;22.504;2022-09-21T11:36:16;12.60;99.90
32947;DHT22;54465;51.230;22.504;2022-09-21T11:39:29;12.80;99.90
32947;DHT22;54465;51.230;22.504;2022-09-21T11:42:55;12.90;99.90
32947;DHT22;54465;51.230;22.504;2022-09-21T11:46:10;12.90;99.90
32947;DHT22;54465;51.230;22.504;2022-09-21T11:49:32;12.90;99.90
32947;DHT22;54465;51.230;22.504;2022-09-21T11:52:47;13.00;99.90
32947;DHT22;54465;51.230;22.504;2022-09-21T11:59:31;12.90;99.90
32947;DHT22;54465;51.230;22.504;2022-09-21T12:06:10;13.40;99.90
32947;DHT22;54465;51.230;22.504;2022-09-21T12:09:41;13.50;99.90
32947;DHT22;54465;51.230;22.504;2022-09-21T12:12:55;13.80;99.90
32947;DHT22;54465;51.230;22.504;2022-09-21T12:16:04;13.90;99.90
32947;DHT22;54465;51.230;22.504;2022-09-21T12:19:12;13.80;99.90
32947;DHT22;54465;51.230;22.504;2022-09-21T12:22:23;13.70;99.90
32947;DHT22;54465;51.230;22.504;2022-09-21T12:25:30;13.70;99.90
32947;DHT22;54465;51.230;22.504;2022-09-21T12:28:38;13.70;99.90
32947;DHT22;54465;51.230;22.504;2022-09-21T12:31:54;13.70;99.90
32947;DHT22;54465;51.230;22.504;2022-09-21T12:35:01;13.80;99.90
32947;DHT22;54465;51.230;22.504;2022-09-21T12:38:08;13.90;99.90
32947;DHT22;54465;51.230;22.504;2022-09-21T12:41:15;14.10;99.90
32947;DHT22;54465;51.230;22.504;2022-09-21T12:44:24;14.20;99.90
32947;DHT22;54465;51.230;22.504;2022-09-21T12:47:42;14.20;99.90
32947;DHT22;54465;51.230;22.504;2022-09-21T12:50:48;14.40;99.90
32947;DHT22;54465;51.230;22.504;2022-09-21T12:53:53;14.60;99.90
32947;DHT22;54465;51.230;22.504;2022-09-21T12:57:08;14.80;99.90
32947;DHT22;54465;51.230;22.504;2022-09-21T13:00:16;15.20;99.90
32947;DHT22;54465;51.230;22.504;2022-09-21T13:03:28;15.50;99.90
32947;DHT22;54465;51.230;22.504;2022-09-21T13:07:01;15.80;99.90
32947;DHT22;54465;51.230;22.504;2022-09-21T13:10:16;15.90;99.90
32947;DHT22;54465;51.230;22.504;2022-09-21T13:13:26;15.70;99.90
32947;DHT22;54465;51.230;22.504;2022-09-21T13:16:31;15.50;99.90
32947;DHT22;54465;51.230;22.504;2022-09-21T13:19:39;15.30;99.90
32947;DHT22;54465;51.230;22.504;2022-09-21T13:22:47;15.20;99.90
32947;DHT22;54465;51.230;22.504;2022-09-21T13:25:59;15.00;99.90
32947;DHT22;54465;51.230;22.504;2022-09-21T13:29:24;14.90;99.90
32947;DHT22;54465;51.230;22.504;2022-09-21T13:32:50;14.70;99.90
32947;DHT22;54465;51.230;22.504;2022-09-21T13:36:10;14.70;99.90
32947;DHT22;54465;51.230;22.504;2022-09-21T13:39:29;14.90;99.90
32947;DHT22;54465;51.230;22.504;2022-09-21T13:42:46;15.40;99.90
32947;DHT22;54465;51.230;22.504;2022-09-21T13:45:56;15.60;99.90
32947;DHT22;54465;51.230;22.504;2022-09-21T13:49:04;15.50;99.90
32947;DHT22;54465;51.230;22.504;2022-09-21T13:52:36;15.20;99.90
32947;DHT22;54465;51.230;22.504;2022-09-21T13:55:48;14.90;99.90
32947;DHT22;54465;51.230;22.504;2022-09-21T13:58:58;14.70;99.90
32947;DHT22;54465;51.230;22.504;2022-09-21T14:02:02;14.60;99.90
32947;DHT22;54465;51.230;22.504;2022-09-21T14:05:25;14.80;99.90
32947;DHT22;54465;51.230;22.504;2022-09-21T14:08:34;14.90;99.90
32947;DHT22;54465;51.230;22.504;2022-09-21T14:11:42;15.10;99.90
32947;DHT22;54465;51.230;22.504;2022-09-21T14:15:09;15.20;99.90
32947;DHT22;54465;51.230;22.504;2022-09-21T14:18:35;15.30;99.90
32947;DHT22;54465;51.230;22.504;2022-09-21T14:21:37;15.00;99.90
32947;DHT22;54465;51.230;22.504;2022-09-21T14:24:43;14.90;99.90
32947;DHT22;54465;51.230;22.504;2022-09-21T14:27:52;14.80;99.90
32947;DHT22;54465;51.230;22.504;2022-09-21T14:31:01;14.50;99.90
32947;DHT22;54465;51.230;22.504;2022-09-21T14:34:10;14.20;99.90
32947;DHT22;54465;51.230;22.504;2022-09-21T14:37:33;13.80;99.90
32947;DHT22;54465;51.230;22.504;2022-09-21T14:40:39;13.10;99.90
32947;DHT22;54465;51.230;22.504;2022-09-21T14:43:50;12.70;99.90
32947;DHT22;54465;51.230;22.504;2022-09-21T14:47:34;12.40;99.90
32947;DHT22;54465;51.230;22.504;2022-09-21T14:50:48;12.20;99.90
32947;DHT22;54465;51.230;22.504;2022-09-21T14:54:10;12.00;99.90
32947;DHT22;54465;51.230;22.504;2022-09-21T15:00:51;11.80;99.90
32947;DHT22;54465;51.230;22.504;2022-09-21T15:04:09;11.80;99.90
32947;DHT22;54465;51.230;22.504;2022-09-21T15:07:27;11.80;99.90
32947;DHT22;54465;51.230;22.504;2022-09-21T15:10:55;11.80;99.90
32947;DHT22;54465;51.230;22.504;2022-09-21T15:14:18;11.80;99.90
32947;DHT22;54465;51.230;22.504;2022-09-21T15:17:23;11.80;99.90
32947;DHT22;54465;51.230;22.504;2022-09-21T15:20:29;11.80;99.90
32947;DHT22;54465;51.230;22.504;2022-09-21T15:23:37;11.80;99.90
32947;DHT22;54465;51.230;22.504;2022-09-21T15:26:41;11.70;99.90
32947;DHT22;54465;51.230;22.504;2022-09-21T15:29:54;11.80;99.90
32947;DHT22;54465;51.230;22.504;2022-09-21T15:32:59;11.80;99.90
32947;DHT22;54465;51.230;22.504;2022-09-21T15:36:02;11.90;99.90
32947;DHT22;54465;51.230;22.504;2022-09-21T15:39:18;11.90;99.90
32947;DHT22;54465;51.230;22.504;2022-09-21T15:42:29;11.80;99.90
32947;DHT22;54465;51.230;22.504;2022-09-21T15:45:36;11.90;99.90
32947;DHT22;54465;51.230;22.504;2022-09-21T15:48:47;11.80;99.90
32947;DHT22;54465;51.230;22.504;2022-09-21T15:51:54;11.90;99.90
32947;DHT22;54465;51.230;22.504;2022-09-21T15:55:01;11.90;99.90
32947;DHT22;54465;51.230;22.504;2022-09-21T15:58:20;11.80;99.90
32947;DHT22;54465;51.230;22.504;2022-09-21T16:01:40;11.80;99.90
32947;DHT22;54465;51.230;22.504;2022-09-21T16:04:48;11.80;99.90
32947;DHT22;54465;51.230;22.504;2022-09-21T16:08:04;11.80;99.90
32947;DHT22;54465;51.230;22.504;2022-09-21T16:11:18;11.80;99.90
32947;DHT22;54465;51.230;22.504;2022-09-21T16:14:26;11.70;99.90
32947;DHT22;54465;51.230;22.504;2022-09-21T16:17:56;11.70;99.90
32947;DHT22;54465;51.230;22.504;2022-09-21T16:21:14;11.70;99.90
32947;DHT22;54465;51.230;22.504;2022-09-21T16:24:21;11.70;99.90
32947;DHT22;54465;51.230;22.504;2022-09-21T16:27:25;11.60;99.90
32947;DHT22;54465;51.230;22.504;2022-09-21T16:30:47;11.60;99.90
32947;DHT22;54465;51.230;22.504;2022-09-21T16:34:02;11.60;99.90
32947;DHT22;54465;51.230;22.504;2022-09-21T16:37:26;11.60;99.90
32947;DHT22;54465;51.230;22.504;2022-09-21T16:40:29;11.50;99.90
32947;DHT22;54465;51.230;22.504;2022-09-21T16:43:32;11.50;99.90
32947;DHT22;54465;51.230;22.504;2022-09-21T16:46:35;11.40;99.90
32947;DHT22;54465;51.230;22.504;2022-09-21T16:49:41;11.50;99.90
32947;DHT22;54465;51.230;22.504;2022-09-21T16:52:43;11.40;99.90
32947;DHT22;54465;51.230;22.504;2022-09-21T16:55:49;11.40;99.90
32947;DHT22;54465;51.230;22.504;2022-09-21T16:58:53;11.40;99.90
32947;DHT22;54465;51.230;22.504;2022-09-21T17:02:00;11.40;99.90
32947;DHT22;54465;51.230;22.504;2022-09-21T17:05:09;11.30;99.90
32947;DHT22;54465;51.230;22.504;2022-09-21T17:08:12;11.40;99.90
32947;DHT22;54465;51.230;22.504;2022-09-21T17:11:17;11.30;99.90
32947;DHT22;54465;51.230;22.504;2022-09-21T17:14:21;11.30;99.90
32947;DHT22;54465;51.230;22.504;2022-09-21T17:17:26;11.30;99.90
32947;DHT22;54465;51.230;22.504;2022-09-21T17:20:34;11.30;99.90
32947;DHT22;54465;51.230;22.504;2022-09-21T17:23:36;11.30;99.90
32947;DHT22;54465;51.230;22.504;2022-09-21T17:26:42;11.20;99.90
32947;DHT22;54465;51.230;22.504;2022-09-21T17:29:45;11.20;99.90
32947;DHT22;54465;51.230;22.504;2022-09-21T17:32:50;11.20;99.90
32947;DHT22;54465;51.230;22.504;2022-09-21T17:35:54;11.20;99.90
32947;DHT22;54465;51.230;22.504;2022-09-21T17:39:00;11.20;99.90
32947;DHT22;54465;51.230;22.504;2022-09-21T17:42:09;11.20;99.90
32947;DHT22;54465;51.230;22.504;2022-09-21T17:45:19;11.10;99.90
32947;DHT22;54465;51.230;22.504;2022-09-21T17:48:25;11.10;99.90
32947;DHT22;54465;51.230;22.504;2022-09-21T17:51:30;11.10;99.90
32947;DHT22;54465;51.230;22.504;2022-09-21T17:54:50;11.10;99.90
32947;DHT22;54465;51.230;22.504;2022-09-21T17:58:02;11.10;99.90
32947;DHT22;54465;51.230;22.504;2022-09-21T18:01:12;11.10;99.90
32947;DHT22;54465;51.230;22.504;2022-09-21T18:04:16;11.10;99.90
32947;DHT22;54465;51.230;22.504;2022-09-21T18:07:21;11.00;99.90
32947;DHT22;54465;51.230;22.504;2022-09-21T18:10:26;11.00;99.90
32947;DHT22;54465;51.230;22.504;2022-09-21T18:13:38;11.00;99.90
32947;DHT22;54465;51.230;22.504;2022-09-21T18:16:47;11.00;99.90
32947;DHT22;54465;51.230;22.504;2022-09-21T18:20:05;11.00;99.90
32947;DHT22;54465;51.230;22.504;2022-09-21T18:23:21;10.90;99.90
32947;DHT22;54465;51.230;22.504;2022-09-21T18:26:26;10.90;99.90
32947;DHT22;54465;51.230;22.504;2022-09-21T18:29:30;10.90;99.90
32947;DHT22;54465;51.230;22.504;2022-09-21T18:32:46;10.90;99.90
32947;DHT22;54465;51.230;22.504;2022-09-21T18:35:59;10.90;99.90
32947;DHT22;54465;51.230;22.504;2022-09-21T18:39:15;10.90;99.90
32947;DHT22;54465;51.230;22.504;2022-09-21T18:42:29;10.90;99.90
32947;DHT22;54465;51.230;22.504;2022-09-21T18:45:36;10.90;99.90
32947;DHT22;54465;51.230;22.504;2022-09-21T18:48:48;10.90;99.90
32947;DHT22;54465;51.230;22.504;2022-09-21T18:51:58;10.90;99.90
32947;DHT22;54465;51.230;22.504;2022-09-21T18:55:13;10.90;99.90
32947;DHT22;54465;51.230;22.504;2022-09-21T18:58:19;10.80;99.90
32947;DHT22;54465;51.230;22.504;2022-09-21T19:01:25;10.80;99.90
32947;DHT22;54465;51.230;22.504;2022-09-21T19:04:29;10.80;99.90
32947;DHT22;54465;51.230;22.504;2022-09-21T19:07:37;10.80;99.90
32947;DHT22;54465;51.230;22.504;2022-09-21T19:10:49;10.80;99.90
32947;DHT22;54465;51.230;22.504;2022-09-21T19:14:00;10.80;99.90
32947;DHT22;54465;51.230;22.504;2022-09-21T19:17:16;10.80;99.90
32947;DHT22;54465;51.230;22.504;2022-09-21T19:20:39;10.80;99.90
32947;DHT22;54465;51.230;22.504;2022-09-21T19:24:01;10.80;99.90
32947;DHT22;54465;51.230;22.504;2022-09-21T19:27:25;10.70;99.90
32947;DHT22;54465;51.230;22.504;2022-09-21T19:30:29;10.80;99.90
32947;DHT22;54465;51.230;22.504;2022-09-21T19:33:32;10.80;99.90
32947;DHT22;54465;51.230;22.504;2022-09-21T19:36:34;10.80;99.90
32947;DHT22;54465;51.230;22.504;2022-09-21T19:39:37;10.70;99.90
32947;DHT22;54465;51.230;22.504;2022-09-21T19:42:53;10.70;99.90
32947;DHT22;54465;51.230;22.504;2022-09-21T19:46:09;10.70;99.90
32947;DHT22;54465;51.230;22.504;2022-09-21T19:49:16;10.80;99.90
32947;DHT22;54465;51.230;22.504;2022-09-21T19:52:25;10.70;99.90
32947;DHT22;54465;51.230;22.504;2022-09-21T19:55:30;10.70;99.90
32947;DHT22;54465;51.230;22.504;2022-09-21T19:58:54;10.70;99.90